sensor_id;sensor_type;location;lat;lon;timestamp;pressure;altitude;pressure_sealevel;temperature;humidity
51067;BME280;37112;45.892;-123.962;2024-01-10T00:01:46;101190.02;;;7.42;79.36
51067;BME280;37112;45.892;-123.962;2024-01-10T00:04:16;101184.77;;;7.34;79.98
51067;BME280;37112;45.892;-123.962;2024-01-10T00:07:07;101178.58;;;7.29;80.68
51067;BME280;37112;45.892;-123.962;2024-01-10T00:09:28;101186.47;;;7.31;78.93
51067;BME280;37112;45.892;-123.962;2024-01-10T00:11:58;101178.09;;;7.36;78.31
51067;BME280;37112;45.892;-123.962;2024-01-10T00:14:28;101184.73;;;7.42;78.21
51067;BME280;37112;45.892;-123.962;2024-01-10T00:16:59;101187.86;;;7.50;78.08
51067;BME280;37112;45.892;-123.962;2024-01-10T00:19:49;101174.36;;;7.56;77.41
51067;BME280;37112;45.892;-123.962;2024-01-10T00:22:20;101172.23;;;7.63;76.20
51067;BME280;37112;45.892;-123.962;2024-01-10T00:24:51;101162.17;;;7.67;76.16
51067;BME280;37112;45.892;-123.962;2024-01-10T00:27:20;101158.75;;;7.71;76.36
51067;BME280;37112;45.892;-123.962;2024-01-10T00:29:42;101155.84;;;7.76;75.06
51067;BME280;37112;45.892;-123.962;2024-01-10T00:32:13;101160.78;;;7.81;74.21
51067;BME280;37112;45.892;-123.962;2024-01-10T00:34:31;101159.64;;;7.82;72.70
51067;BME280;37112;45.892;-123.962;2024-01-10T00:37:02;101156.43;;;7.79;70.47
51067;BME280;37112;45.892;-123.962;2024-01-10T00:39:32;101152.57;;;7.75;70.42
51067;BME280;37112;45.892;-123.962;2024-01-10T00:42:03;101149.09;;;7.77;71.99
51067;BME280;37112;45.892;-123.962;2024-01-10T00:44:33;101145.89;;;7.81;72.69
51067;BME280;37112;45.892;-123.962;2024-01-10T00:46:57;101140.45;;;7.84;73.18
51067;BME280;37112;45.892;-123.962;2024-01-10T00:49:27;101129.90;;;7.87;73.86
51067;BME280;37112;45.892;-123.962;2024-01-10T00:51:57;101120.60;;;7.89;74.22
51067;BME280;37112;45.892;-123.962;2024-01-10T00:54:30;101106.38;;;7.90;74.27
51067;BME280;37112;45.892;-123.962;2024-01-10T00:57:00;101097.09;;;7.92;74.28
51067;BME280;37112;45.892;-123.962;2024-01-10T00:59:31;101084.30;;;7.93;74.54
51067;BME280;37112;45.892;-123.962;2024-01-10T01:01:54;101078.89;;;7.95;75.09
51067;BME280;37112;45.892;-123.962;2024-01-10T01:04:25;101064.30;;;8.00;75.80
51067;BME280;37112;45.892;-123.962;2024-01-10T01:06:55;101047.15;;;8.00;75.25
51067;BME280;37112;45.892;-123.962;2024-01-10T01:09:26;101038.07;;;8.02;75.56
51067;BME280;37112;45.892;-123.962;2024-01-10T01:11:56;101038.20;;;8.02;75.10
51067;BME280;37112;45.892;-123.962;2024-01-10T01:14:16;101050.91;;;8.03;75.94
51067;BME280;37112;45.892;-123.962;2024-01-10T01:16:47;101064.30;;;8.04;74.60
51067;BME280;37112;45.892;-123.962;2024-01-10T01:19:17;101054.66;;;8.05;74.56
51067;BME280;37112;45.892;-123.962;2024-01-10T01:21:50;101046.53;;;8.08;74.42
51067;BME280;37112;45.892;-123.962;2024-01-10T01:24:14;101035.16;;;8.10;74.37
51067;BME280;37112;45.892;-123.962;2024-01-10T01:26:43;101027.89;;;8.10;74.53
51067;BME280;37112;45.892;-123.962;2024-01-10T01:29:13;101010.25;;;8.13;75.30
51067;BME280;37112;45.892;-123.962;2024-01-10T01:31:36;101006.16;;;8.16;75.80
51067;BME280;37112;45.892;-123.962;2024-01-10T01:34:07;101005.24;;;8.17;75.89
51067;BME280;37112;45.892;-123.962;2024-01-10T01:36:37;101005.38;;;8.18;75.89
51067;BME280;37112;45.892;-123.962;2024-01-10T01:38:56;100995.09;;;8.19;75.65
51067;BME280;37112;45.892;-123.962;2024-01-10T01:41:19;100985.15;;;8.19;75.46
51067;BME280;37112;45.892;-123.962;2024-01-10T01:43:50;100970.28;;;8.20;74.49
51067;BME280;37112;45.892;-123.962;2024-01-10T01:46:21;100959.52;;;8.19;74.50
51067;BME280;37112;45.892;-123.962;2024-01-10T01:48:52;100944.98;;;8.19;74.86
51067;BME280;37112;45.892;-123.962;2024-01-10T01:51:24;100945.83;;;8.17;74.90
51067;BME280;37112;45.892;-123.962;2024-01-10T01:53:57;100955.11;;;8.15;75.13
51067;BME280;37112;45.892;-123.962;2024-01-10T01:56:41;100941.96;;;8.13;75.00
51067;BME280;37112;45.892;-123.962;2024-01-10T01:59:13;100935.39;;;8.10;74.68
51067;BME280;37112;45.892;-123.962;2024-01-10T02:01:37;100936.26;;;8.01;74.30
51067;BME280;37112;45.892;-123.962;2024-01-10T02:04:08;100935.48;;;7.89;75.62
51067;BME280;37112;45.892;-123.962;2024-01-10T02:06:32;100939.92;;;7.78;77.41
51067;BME280;37112;45.892;-123.962;2024-01-10T02:08:51;100937.89;;;7.73;80.50
51067;BME280;37112;45.892;-123.962;2024-01-10T02:11:16;100932.81;;;7.59;80.85
51067;BME280;37112;45.892;-123.962;2024-01-10T02:13:46;100935.20;;;7.40;79.86
51067;BME280;37112;45.892;-123.962;2024-01-10T02:16:17;100924.13;;;7.25;80.70
51067;BME280;37112;45.892;-123.962;2024-01-10T02:18:48;100906.98;;;7.18;82.51
51067;BME280;37112;45.892;-123.962;2024-01-10T02:23:55;100907.98;;;7.09;83.23
51067;BME280;37112;45.892;-123.962;2024-01-10T02:26:25;100907.71;;;7.07;83.42
51067;BME280;37112;45.892;-123.962;2024-01-10T02:28:50;100905.98;;;7.03;83.29
51067;BME280;37112;45.892;-123.962;2024-01-10T02:31:14;100906.47;;;7.00;82.93
51067;BME280;37112;45.892;-123.962;2024-01-10T02:33:44;100907.88;;;6.96;83.65
51067;BME280;37112;45.892;-123.962;2024-01-10T02:36:15;100904.83;;;6.94;84.34
51067;BME280;37112;45.892;-123.962;2024-01-10T02:38:38;100898.93;;;6.88;84.03
51067;BME280;37112;45.892;-123.962;2024-01-10T02:41:09;100892.06;;;6.81;84.64
51067;BME280;37112;45.892;-123.962;2024-01-10T02:43:39;100887.14;;;6.77;85.63
51067;BME280;37112;45.892;-123.962;2024-01-10T02:46:09;100879.34;;;6.66;84.76
51067;BME280;37112;45.892;-123.962;2024-01-10T02:48:28;100881.29;;;6.56;84.58
51067;BME280;37112;45.892;-123.962;2024-01-10T02:50:59;100883.74;;;6.45;84.89
51067;BME280;37112;45.892;-123.962;2024-01-10T02:53:30;100870.13;;;6.38;86.58
51067;BME280;37112;45.892;-123.962;2024-01-10T02:56:00;100860.70;;;6.36;86.80
51067;BME280;37112;45.892;-123.962;2024-01-10T02:58:30;100852.63;;;6.32;87.36
51067;BME280;37112;45.892;-123.962;2024-01-10T03:01:01;100844.21;;;6.27;87.82
51067;BME280;37112;45.892;-123.962;2024-01-10T03:03:25;100833.56;;;6.21;87.48
51067;BME280;37112;45.892;-123.962;2024-01-10T03:05:56;100808.77;;;6.12;87.37
51067;BME280;37112;45.892;-123.962;2024-01-10T03:08:26;100788.70;;;6.04;87.18
51067;BME280;37112;45.892;-123.962;2024-01-10T03:10:57;100784.32;;;6.00;87.65
51067;BME280;37112;45.892;-123.962;2024-01-10T03:13:20;100775.11;;;5.97;87.93
51067;BME280;37112;45.892;-123.962;2024-01-10T03:15:38;100762.38;;;5.95;87.77
51067;BME280;37112;45.892;-123.962;2024-01-10T03:18:09;100755.52;;;5.90;87.54
51067;BME280;37112;45.892;-123.962;2024-01-10T03:20:39;100757.15;;;5.85;87.92
51067;BME280;37112;45.892;-123.962;2024-01-10T03:23:10;100750.45;;;5.78;87.74
51067;BME280;37112;45.892;-123.962;2024-01-10T03:25:34;100742.08;;;5.72;88.08
51067;BME280;37112;45.892;-123.962;2024-01-10T03:28:05;100735.86;;;5.66;87.87
51067;BME280;37112;45.892;-123.962;2024-01-10T03:30:28;100729.99;;;5.59;87.62
51067;BME280;37112;45.892;-123.962;2024-01-10T03:32:58;100719.36;;;5.53;87.72
51067;BME280;37112;45.892;-123.962;2024-01-10T03:35:28;100711.27;;;5.46;87.33
51067;BME280;37112;45.892;-123.962;2024-01-10T03:37:58;100690.35;;;5.41;87.68
51067;BME280;37112;45.892;-123.962;2024-01-10T03:40:18;100679.13;;;5.40;87.62
51067;BME280;37112;45.892;-123.962;2024-01-10T03:42:48;100671.70;;;5.37;87.40
51067;BME280;37112;45.892;-123.962;2024-01-10T03:45:16;100665.95;;;5.36;87.56
51067;BME280;37112;45.892;-123.962;2024-01-10T03:47:40;100653.38;;;5.38;87.83
51067;BME280;37112;45.892;-123.962;2024-01-10T03:50:11;100631.55;;;5.37;87.69
51067;BME280;37112;45.892;-123.962;2024-01-10T03:52:42;100610.09;;;5.37;87.73
51067;BME280;37112;45.892;-123.962;2024-01-10T03:55:13;100596.11;;;5.38;87.77
51067;BME280;37112;45.892;-123.962;2024-01-10T03:57:44;100592.30;;;5.40;87.92
51067;BME280;37112;45.892;-123.962;2024-01-10T04:00:15;100585.45;;;5.40;87.75
51067;BME280;37112;45.892;-123.962;2024-01-10T04:02:33;100570.92;;;5.35;87.45
51067;BME280;37112;45.892;-123.962;2024-01-10T04:05:05;100542.02;;;5.28;86.95
51067;BME280;37112;45.892;-123.962;2024-01-10T04:07:33;100513.05;;;5.19;86.66
51067;BME280;37112;45.892;-123.962;2024-01-10T04:09:52;100484.66;;;5.10;86.42
51067;BME280;37112;45.892;-123.962;2024-01-10T04:12:15;100467.83;;;4.94;85.69
51067;BME280;37112;45.892;-123.962;2024-01-10T04:14:46;100467.17;;;4.74;85.15
51067;BME280;37112;45.892;-123.962;2024-01-10T04:17:09;100455.10;;;4.58;85.33
51067;BME280;37112;45.892;-123.962;2024-01-10T04:19:39;100446.02;;;4.42;85.64
51067;BME280;37112;45.892;-123.962;2024-01-10T04:22:10;100426.31;;;4.27;85.69
51067;BME280;37112;45.892;-123.962;2024-01-10T04:24:33;100427.98;;;4.13;85.62
51067;BME280;37112;45.892;-123.962;2024-01-10T04:27:04;100426.38;;;3.95;85.19
51067;BME280;37112;45.892;-123.962;2024-01-10T04:29:38;100405.94;;;3.76;85.14
51067;BME280;37112;45.892;-123.962;2024-01-10T04:32:09;100402.26;;;3.60;85.05
51067;BME280;37112;45.892;-123.962;2024-01-10T04:34:39;100405.66;;;3.43;84.91
51067;BME280;37112;45.892;-123.962;2024-01-10T04:37:10;100414.66;;;3.30;85.47
51067;BME280;37112;45.892;-123.962;2024-01-10T04:39:33;100409.45;;;3.24;85.84
51067;BME280;37112;45.892;-123.962;2024-01-10T04:41:58;100410.19;;;3.23;86.27
51067;BME280;37112;45.892;-123.962;2024-01-10T04:44:28;100411.11;;;3.22;86.35
51067;BME280;37112;45.892;-123.962;2024-01-10T04:46:57;100417.41;;;3.15;86.07
51067;BME280;37112;45.892;-123.962;2024-01-10T04:49:27;100409.20;;;3.09;86.22
51067;BME280;37112;45.892;-123.962;2024-01-10T04:51:57;100402.34;;;3.01;85.89
51067;BME280;37112;45.892;-123.962;2024-01-10T04:54:28;100399.45;;;2.99;86.40
51067;BME280;37112;45.892;-123.962;2024-01-10T04:56:51;100388.73;;;2.99;86.73
51067;BME280;37112;45.892;-123.962;2024-01-10T04:59:06;100390.48;;;2.99;86.93
51067;BME280;37112;45.892;-123.962;2024-01-10T05:01:30;100394.29;;;2.97;86.67
51067;BME280;37112;45.892;-123.962;2024-01-10T05:03:53;100393.98;;;2.91;86.22
51067;BME280;37112;45.892;-123.962;2024-01-10T05:06:12;100388.52;;;2.83;86.27
51067;BME280;37112;45.892;-123.962;2024-01-10T05:08:42;100394.01;;;2.77;86.49
51067;BME280;37112;45.892;-123.962;2024-01-10T05:11:13;100413.55;;;2.71;86.81
51067;BME280;37112;45.892;-123.962;2024-01-10T05:13:44;100431.62;;;2.62;86.42
51067;BME280;37112;45.892;-123.962;2024-01-10T05:16:08;100442.91;;;2.51;86.49
51067;BME280;37112;45.892;-123.962;2024-01-10T05:18:38;100461.45;;;2.43;86.69
51067;BME280;37112;45.892;-123.962;2024-01-10T05:21:02;100477.06;;;2.38;86.94
51067;BME280;37112;45.892;-123.962;2024-01-10T05:23:33;100483.61;;;2.36;87.40
51067;BME280;37112;45.892;-123.962;2024-01-10T05:26:03;100489.92;;;2.36;87.75
51067;BME280;37112;45.892;-123.962;2024-01-10T05:28:34;100502.58;;;2.35;87.70
51067;BME280;37112;45.892;-123.962;2024-01-10T05:30:59;100513.14;;;2.34;87.89
51067;BME280;37112;45.892;-123.962;2024-01-10T05:33:17;100517.13;;;2.35;88.07
51067;BME280;37112;45.892;-123.962;2024-01-10T05:35:49;100517.18;;;2.33;87.97
51067;BME280;37112;45.892;-123.962;2024-01-10T05:38:19;100532.06;;;2.29;88.12
51067;BME280;37112;45.892;-123.962;2024-01-10T05:40:50;100538.98;;;2.27;88.32
51067;BME280;37112;45.892;-123.962;2024-01-10T05:43:14;100552.54;;;2.24;90.28
51067;BME280;37112;45.892;-123.962;2024-01-10T05:45:44;100562.80;;;2.27;91.64
51067;BME280;37112;45.892;-123.962;2024-01-10T05:48:14;100561.58;;;2.27;92.71
51067;BME280;37112;45.892;-123.962;2024-01-10T05:50:46;100551.36;;;2.29;91.72
51067;BME280;37112;45.892;-123.962;2024-01-10T05:53:10;100530.48;;;2.29;91.17
51067;BME280;37112;45.892;-123.962;2024-01-10T05:55:42;100562.81;;;2.26;90.53
51067;BME280;37112;45.892;-123.962;2024-01-10T05:58:06;100553.15;;;2.22;90.08
51067;BME280;37112;45.892;-123.962;2024-01-10T06:00:26;100542.75;;;2.19;89.99
51067;BME280;37112;45.892;-123.962;2024-01-10T06:02:56;100524.08;;;2.17;90.01
51067;BME280;37112;45.892;-123.962;2024-01-10T06:05:22;100495.35;;;2.12;89.71
51067;BME280;37112;45.892;-123.962;2024-01-10T06:07:53;100470.52;;;2.06;89.66
51067;BME280;37112;45.892;-123.962;2024-01-10T06:10:16;100469.77;;;2.03;89.75
51067;BME280;37112;45.892;-123.962;2024-01-10T06:12:47;100498.83;;;2.04;90.10
51067;BME280;37112;45.892;-123.962;2024-01-10T06:15:17;100496.73;;;2.04;89.97
51067;BME280;37112;45.892;-123.962;2024-01-10T06:17:36;100494.40;;;2.05;90.11
51067;BME280;37112;45.892;-123.962;2024-01-10T06:19:59;100500.64;;;2.06;90.20
51067;BME280;37112;45.892;-123.962;2024-01-10T06:22:20;100505.36;;;2.07;90.30
51067;BME280;37112;45.892;-123.962;2024-01-10T06:24:57;100512.59;;;2.10;90.57
51067;BME280;37112;45.892;-123.962;2024-01-10T06:27:27;100508.71;;;2.11;90.55
51067;BME280;37112;45.892;-123.962;2024-01-10T06:29:59;100513.59;;;2.12;90.40
51067;BME280;37112;45.892;-123.962;2024-01-10T06:32:28;100523.47;;;2.14;90.55
51067;BME280;37112;45.892;-123.962;2024-01-10T06:34:46;100525.18;;;2.15;90.43
51067;BME280;37112;45.892;-123.962;2024-01-10T06:37:16;100526.89;;;2.17;90.28
51067;BME280;37112;45.892;-123.962;2024-01-10T06:39:47;100524.84;;;2.20;90.56
51067;BME280;37112;45.892;-123.962;2024-01-10T06:42:17;100519.95;;;2.24;90.65
51067;BME280;37112;45.892;-123.962;2024-01-10T06:44:47;100510.86;;;2.23;90.42
51067;BME280;37112;45.892;-123.962;2024-01-10T06:47:12;100497.26;;;2.22;90.19
51067;BME280;37112;45.892;-123.962;2024-01-10T06:49:43;100507.23;;;2.22;90.59
51067;BME280;37112;45.892;-123.962;2024-01-10T06:52:13;100508.13;;;2.22;90.46
51067;BME280;37112;45.892;-123.962;2024-01-10T06:54:45;100504.27;;;2.22;90.71
51067;BME280;37112;45.892;-123.962;2024-01-10T06:57:14;100502.02;;;2.22;90.62
51067;BME280;37112;45.892;-123.962;2024-01-10T06:59:44;100577.36;;;2.11;91.41
51067;BME280;37112;45.892;-123.962;2024-01-10T07:02:08;100600.10;;;2.27;97.30
51067;BME280;37112;45.892;-123.962;2024-01-10T07:04:27;100603.34;;;2.59;100.00
51067;BME280;37112;45.892;-123.962;2024-01-10T07:06:57;100597.97;;;2.90;100.00
51067;BME280;37112;45.892;-123.962;2024-01-10T07:09:28;100604.23;;;3.15;100.00
51067;BME280;37112;45.892;-123.962;2024-01-10T07:11:57;100597.50;;;3.34;100.00
51067;BME280;37112;45.892;-123.962;2024-01-10T07:14:29;100577.54;;;3.42;100.00
51067;BME280;37112;45.892;-123.962;2024-01-10T07:16:59;100561.58;;;3.50;100.00
51067;BME280;37112;45.892;-123.962;2024-01-10T07:19:29;100575.98;;;3.58;100.00
51067;BME280;37112;45.892;-123.962;2024-01-10T07:22:00;100587.05;;;3.67;100.00
51067;BME280;37112;45.892;-123.962;2024-01-10T07:24:31;100582.16;;;3.75;100.00
51067;BME280;37112;45.892;-123.962;2024-01-10T07:27:03;100571.35;;;3.81;100.00
51067;BME280;37112;45.892;-123.962;2024-01-10T07:29:27;100565.82;;;3.87;100.00
51067;BME280;37112;45.892;-123.962;2024-01-10T07:31:56;100555.97;;;3.92;100.00
51067;BME280;37112;45.892;-123.962;2024-01-10T07:34:28;100542.77;;;3.97;100.00
51067;BME280;37112;45.892;-123.962;2024-01-10T07:36:59;100541.86;;;4.01;100.00
51067;BME280;37112;45.892;-123.962;2024-01-10T07:39:31;100541.40;;;4.00;100.00
51067;BME280;37112;45.892;-123.962;2024-01-10T07:42:01;100548.86;;;3.94;99.60
51067;BME280;37112;45.892;-123.962;2024-01-10T07:44:32;100549.98;;;3.88;99.12
51067;BME280;37112;45.892;-123.962;2024-01-10T07:47:03;100544.08;;;3.82;98.67
51067;BME280;37112;45.892;-123.962;2024-01-10T07:49:26;100541.93;;;3.75;97.95
51067;BME280;37112;45.892;-123.962;2024-01-10T07:51:58;100542.45;;;3.67;97.32
51067;BME280;37112;45.892;-123.962;2024-01-10T07:54:20;100545.36;;;3.60;97.18
51067;BME280;37112;45.892;-123.962;2024-01-10T07:56:51;100535.63;;;3.53;97.37
51067;BME280;37112;45.892;-123.962;2024-01-10T07:59:23;100529.24;;;3.47;97.21
51067;BME280;37112;45.892;-123.962;2024-01-10T08:01:59;100524.09;;;3.40;97.04
51067;BME280;37112;45.892;-123.962;2024-01-10T08:04:30;100521.77;;;3.32;96.99
51067;BME280;37112;45.892;-123.962;2024-01-10T08:06:54;100519.81;;;3.24;96.88
51067;BME280;37112;45.892;-123.962;2024-01-10T08:09:26;100537.53;;;3.20;97.17
51067;BME280;37112;45.892;-123.962;2024-01-10T08:11:56;100533.38;;;3.18;97.59
51067;BME280;37112;45.892;-123.962;2024-01-10T08:14:27;100528.19;;;3.17;98.35
51067;BME280;37112;45.892;-123.962;2024-01-10T08:16:57;100536.88;;;3.23;100.00
51067;BME280;37112;45.892;-123.962;2024-01-10T08:19:29;100530.75;;;3.35;100.00
51067;BME280;37112;45.892;-123.962;2024-01-10T08:21:49;100553.20;;;3.74;100.00
51067;BME280;37112;45.892;-123.962;2024-01-10T08:24:19;100556.61;;;4.09;100.00
51067;BME280;37112;45.892;-123.962;2024-01-10T08:26:50;100579.68;;;4.29;99.93
51067;BME280;37112;45.892;-123.962;2024-01-10T08:29:20;100587.27;;;4.40;99.97
51067;BME280;37112;45.892;-123.962;2024-01-10T08:31:39;100575.88;;;4.43;99.72
51067;BME280;37112;45.892;-123.962;2024-01-10T08:34:10;100577.46;;;4.51;99.88
51067;BME280;37112;45.892;-123.962;2024-01-10T08:36:40;100577.16;;;4.50;98.81
51067;BME280;37112;45.892;-123.962;2024-01-10T08:39:03;100570.80;;;4.46;98.56
51067;BME280;37112;45.892;-123.962;2024-01-10T08:41:26;100554.48;;;4.41;97.69
51067;BME280;37112;45.892;-123.962;2024-01-10T08:43:57;100555.23;;;4.37;97.42
51067;BME280;37112;45.892;-123.962;2024-01-10T08:46:26;100550.89;;;4.36;97.47
51067;BME280;37112;45.892;-123.962;2024-01-10T08:48:57;100550.61;;;4.38;97.76
51067;BME280;37112;45.892;-123.962;2024-01-10T08:51:21;100549.30;;;4.40;97.56
51067;BME280;37112;45.892;-123.962;2024-01-10T08:53:52;100546.44;;;4.45;98.05
51067;BME280;37112;45.892;-123.962;2024-01-10T08:56:25;100544.05;;;4.47;97.48
51067;BME280;37112;45.892;-123.962;2024-01-10T08:58:49;100545.09;;;4.47;97.29
51067;BME280;37112;45.892;-123.962;2024-01-10T09:01:19;100541.10;;;4.50;97.41
51067;BME280;37112;45.892;-123.962;2024-01-10T09:03:51;100540.98;;;4.53;97.57
51067;BME280;37112;45.892;-123.962;2024-01-10T09:06:23;100537.55;;;4.59;97.78
51067;BME280;37112;45.892;-123.962;2024-01-10T09:08:53;100531.66;;;4.64;97.95
51067;BME280;37112;45.892;-123.962;2024-01-10T09:11:16;100533.05;;;4.72;98.78
51067;BME280;37112;45.892;-123.962;2024-01-10T09:13:54;100534.38;;;4.85;98.45
51067;BME280;37112;45.892;-123.962;2024-01-10T09:16:25;100524.14;;;5.05;95.20
51067;BME280;37112;45.892;-123.962;2024-01-10T09:18:48;100529.80;;;5.25;91.79
51067;BME280;37112;45.892;-123.962;2024-01-10T09:21:21;100529.88;;;5.43;85.52
51067;BME280;37112;45.892;-123.962;2024-01-10T09:23:51;100530.83;;;5.59;84.20
51067;BME280;37112;45.892;-123.962;2024-01-10T09:26:21;100527.98;;;5.70;84.64
51067;BME280;37112;45.892;-123.962;2024-01-10T09:28:51;100518.20;;;5.78;84.39
51067;BME280;37112;45.892;-123.962;2024-01-10T09:31:22;100520.48;;;5.89;83.88
51067;BME280;37112;45.892;-123.962;2024-01-10T09:33:53;100514.35;;;5.96;82.80
51067;BME280;37112;45.892;-123.962;2024-01-10T09:36:18;100516.03;;;6.01;82.49
51067;BME280;37112;45.892;-123.962;2024-01-10T09:38:48;100513.83;;;6.06;81.88
51067;BME280;37112;45.892;-123.962;2024-01-10T09:41:19;100513.64;;;6.16;82.03
51067;BME280;37112;45.892;-123.962;2024-01-10T09:43:38;100527.38;;;6.23;83.39
51067;BME280;37112;45.892;-123.962;2024-01-10T09:46:09;100538.31;;;6.26;84.42
51067;BME280;37112;45.892;-123.962;2024-01-10T09:48:40;100534.35;;;6.07;81.68
51067;BME280;37112;45.892;-123.962;2024-01-10T09:51:10;100526.10;;;5.93;82.24
51067;BME280;37112;45.892;-123.962;2024-01-10T09:53:37;100521.98;;;5.83;83.91
51067;BME280;37112;45.892;-123.962;2024-01-10T09:56:11;100525.58;;;5.93;87.10
51067;BME280;37112;45.892;-123.962;2024-01-10T09:58:30;100536.81;;;6.08;90.14
51067;BME280;37112;45.892;-123.962;2024-01-10T10:01:08;100541.77;;;6.04;88.13
51067;BME280;37112;45.892;-123.962;2024-01-10T10:03:40;100550.16;;;5.95;87.64
51067;BME280;37112;45.892;-123.962;2024-01-10T10:06:12;100561.59;;;5.88;86.70
51067;BME280;37112;45.892;-123.962;2024-01-10T10:08:36;100572.55;;;5.83;85.99
51067;BME280;37112;45.892;-123.962;2024-01-10T10:10:55;100570.39;;;5.81;84.67
51067;BME280;37112;45.892;-123.962;2024-01-10T10:13:25;100579.14;;;5.82;84.25
51067;BME280;37112;45.892;-123.962;2024-01-10T10:15:59;100578.05;;;5.79;84.33
51067;BME280;37112;45.892;-123.962;2024-01-10T10:18:30;100579.27;;;5.77;82.82
51067;BME280;37112;45.892;-123.962;2024-01-10T10:21:11;100568.76;;;5.68;81.28
51067;BME280;37112;45.892;-123.962;2024-01-10T10:23:36;100579.79;;;5.66;82.05
51067;BME280;37112;45.892;-123.962;2024-01-10T10:26:17;100607.17;;;5.64;83.84
51067;BME280;37112;45.892;-123.962;2024-01-10T10:28:51;100628.17;;;5.49;87.41
51067;BME280;37112;45.892;-123.962;2024-01-10T10:31:22;100645.55;;;5.28;90.27
51067;BME280;37112;45.892;-123.962;2024-01-10T10:33:54;100644.70;;;5.08;89.81
51067;BME280;37112;45.892;-123.962;2024-01-10T10:36:25;100651.78;;;4.92;90.61
51067;BME280;37112;45.892;-123.962;2024-01-10T10:38:55;100641.96;;;4.80;89.91
51067;BME280;37112;45.892;-123.962;2024-01-10T10:41:27;100632.27;;;4.68;90.49
51067;BME280;37112;45.892;-123.962;2024-01-10T10:44:00;100629.20;;;4.66;92.12
51067;BME280;37112;45.892;-123.962;2024-01-10T10:46:34;100625.67;;;4.70;92.41
51067;BME280;37112;45.892;-123.962;2024-01-10T10:48:59;100619.67;;;4.70;91.97
51067;BME280;37112;45.892;-123.962;2024-01-10T10:51:36;100616.15;;;4.70;91.87
51067;BME280;37112;45.892;-123.962;2024-01-10T10:53:56;100606.71;;;4.72;92.14
51067;BME280;37112;45.892;-123.962;2024-01-10T10:56:30;100603.75;;;4.76;92.17
51067;BME280;37112;45.892;-123.962;2024-01-10T10:58:55;100598.09;;;4.81;92.27
51067;BME280;37112;45.892;-123.962;2024-01-10T11:01:19;100598.54;;;4.94;93.00
51067;BME280;37112;45.892;-123.962;2024-01-10T11:03:50;100604.14;;;5.17;94.91
51067;BME280;37112;45.892;-123.962;2024-01-10T11:06:13;100599.58;;;5.36;94.63
51067;BME280;37112;45.892;-123.962;2024-01-10T11:08:47;100595.87;;;5.43;90.71
51067;BME280;37112;45.892;-123.962;2024-01-10T11:11:26;100600.10;;;5.43;88.63
51067;BME280;37112;45.892;-123.962;2024-01-10T11:14:18;100607.55;;;5.57;90.16
51067;BME280;37112;45.892;-123.962;2024-01-10T11:17:26;100604.55;;;5.64;88.41
51067;BME280;37112;45.892;-123.962;2024-01-10T11:20:23;100608.34;;;5.66;87.62
51067;BME280;37112;45.892;-123.962;2024-01-10T11:23:22;100607.00;;;5.68;86.31
51067;BME280;37112;45.892;-123.962;2024-01-10T11:25:49;100600.81;;;5.69;86.30
51067;BME280;37112;45.892;-123.962;2024-01-10T11:28:21;100611.90;;;5.79;88.61
51067;BME280;37112;45.892;-123.962;2024-01-10T11:30:53;100614.73;;;5.89;88.83
51067;BME280;37112;45.892;-123.962;2024-01-10T11:36:43;100621.47;;;6.04;88.03
51067;BME280;37112;45.892;-123.962;2024-01-10T11:39:38;100615.63;;;6.08;88.22
51067;BME280;37112;45.892;-123.962;2024-01-10T11:42:08;100616.93;;;6.10;87.06
51067;BME280;37112;45.892;-123.962;2024-01-10T11:44:58;100611.20;;;6.11;86.25
51067;BME280;37112;45.892;-123.962;2024-01-10T11:47:28;100608.93;;;6.14;86.06
51067;BME280;37112;45.892;-123.962;2024-01-10T11:50:06;100604.39;;;6.24;87.67
51067;BME280;37112;45.892;-123.962;2024-01-10T11:52:36;100610.76;;;6.23;87.28
51067;BME280;37112;45.892;-123.962;2024-01-10T11:55:12;100607.27;;;6.12;86.42
51067;BME280;37112;45.892;-123.962;2024-01-10T11:58:11;100621.69;;;5.99;87.47
51067;BME280;37112;45.892;-123.962;2024-01-10T12:00:35;100614.86;;;5.76;87.18
51067;BME280;37112;45.892;-123.962;2024-01-10T12:03:10;100618.58;;;5.65;88.78
51067;BME280;37112;45.892;-123.962;2024-01-10T12:05:35;100614.80;;;5.59;89.90
51067;BME280;37112;45.892;-123.962;2024-01-10T12:08:12;100613.23;;;5.59;90.56
51067;BME280;37112;45.892;-123.962;2024-01-10T12:10:49;100618.96;;;5.57;90.13
51067;BME280;37112;45.892;-123.962;2024-01-10T12:13:24;100609.42;;;5.54;89.50
51067;BME280;37112;45.892;-123.962;2024-01-10T12:15:55;100609.65;;;5.53;89.06
51067;BME280;37112;45.892;-123.962;2024-01-10T12:18:29;100623.45;;;5.59;89.17
51067;BME280;37112;45.892;-123.962;2024-01-10T12:21:03;100629.96;;;5.63;89.86
51067;BME280;37112;45.892;-123.962;2024-01-10T12:23:38;100632.29;;;5.58;89.92
51067;BME280;37112;45.892;-123.962;2024-01-10T12:26:08;100645.48;;;5.51;90.46
51067;BME280;37112;45.892;-123.962;2024-01-10T12:28:56;100640.64;;;5.42;92.22
51067;BME280;37112;45.892;-123.962;2024-01-10T12:31:24;100646.23;;;5.36;93.88
51067;BME280;37112;45.892;-123.962;2024-01-10T12:33:49;100655.39;;;5.32;94.51
51067;BME280;37112;45.892;-123.962;2024-01-10T12:36:25;100650.50;;;5.16;93.27
51067;BME280;37112;45.892;-123.962;2024-01-10T12:38:48;100652.43;;;5.04;93.38
51067;BME280;37112;45.892;-123.962;2024-01-10T12:41:14;100649.96;;;4.97;93.05
51067;BME280;37112;45.892;-123.962;2024-01-10T12:43:42;100625.95;;;4.91;92.77
51067;BME280;37112;45.892;-123.962;2024-01-10T12:46:11;100649.77;;;4.89;92.24
51067;BME280;37112;45.892;-123.962;2024-01-10T12:48:45;100660.81;;;4.91;92.27